Time;durP1;ratioP1;P1;durP2;ratioP2;P2;SDS_P1;SDS_P2;PMS_P1;PMS_P2;Temp;Humidity;BMP_temperature;BMP_pressure;BME280_temperature;BME280_humidity;BME280_pressure;Samples;Min_cycle;Max_cycle;Signal;HPM_P1;HPM_P2
2023/11/20 00:00:14;;;;;;;1999.90;999.90;;;12.00;1.00;;;;;;5013476;28;20193;-72
2023/11/20 00:02:43;;;;;;;1999.90;999.90;;;11.90;1.00;;;;;;5014250;28;20976;-72
2023/11/20 00:05:09;;;;;;;1999.90;999.90;;;11.90;1.00;;;;;;5014374;28;20419;-73
2023/11/20 00:07:36;;;;;;;1999.90;999.90;;;11.80;1.00;;;;;;5015357;28;20412;-72
2023/11/20 00:10:02;;;;;;;1999.90;999.90;;;11.40;1.00;;;;;;5014445;28;20412;-72
2023/11/20 00:12:28;;;;;;;1999.90;999.90;;;11.60;1.00;;;;;;5014512;28;20459;-72
2023/11/20 00:14:53;;;;;;;1999.90;999.90;;;11.50;26.60;;;;;;5015287;28;20499;-71
2023/11/20 00:17:19;;;;;;;1999.90;999.90;;;11.50;93.10;;;;;;5014952;28;20227;-72
2023/11/20 00:19:45;;;;;;;1999.90;999.90;;;10.60;99.90;;;;;;5014534;28;20164;-72
2023/11/20 00:22:11;;;;;;;1999.90;999.90;;;11.30;99.90;;;;;;5013674;28;20635;-72
2023/11/20 00:24:37;;;;;;;1999.90;999.90;;;11.30;99.90;;;;;;5031683;28;20442;-72
2023/11/20 00:27:04;;;;;;;1999.90;999.90;;;11.30;99.90;;;;;;5033486;28;20254;-72
2023/11/20 00:29:30;;;;;;;1999.90;999.90;;;11.30;99.90;;;;;;5033255;28;20425;-72
2023/11/20 00:31:56;;;;;;;1999.90;999.90;;;11.30;99.90;;;;;;5040976;28;20454;-71
2023/11/20 00:34:21;;;;;;;1999.90;999.90;;;11.40;99.90;;;;;;5040086;28;20399;-71
2023/11/20 00:36:47;;;;;;;1999.90;999.90;;;11.40;99.90;;;;;;5039580;28;20616;-71
2023/11/20 00:39:13;;;;;;;1999.90;999.90;;;11.40;99.90;;;;;;5037744;28;20179;-71
2023/11/20 00:41:38;;;;;;;1999.90;999.90;;;11.50;99.90;;;;;;5039757;28;20215;-72
2023/11/20 00:44:06;;;;;;;1999.90;999.90;;;11.50;99.90;;;;;;5040906;28;20516;-72
2023/11/20 00:46:32;;;;;;;1999.90;999.90;;;11.50;99.90;;;;;;5043699;28;20164;-71
2023/11/20 00:48:58;;;;;;;1999.90;999.90;;;11.60;99.90;;;;;;5043163;28;20410;-71
2023/11/20 00:51:25;;;;;;;1999.90;999.90;;;11.60;99.90;;;;;;5044777;28;20461;-72
2023/11/20 00:53:51;;;;;;;1999.90;999.90;;;11.60;99.90;;;;;;5043551;28;20469;-72
2023/11/20 00:56:19;;;;;;;1999.90;999.90;;;11.60;99.90;;;;;;5043560;28;20898;-72
2023/11/20 00:58:45;;;;;;;1999.90;999.90;;;11.70;99.90;;;;;;5043976;28;20179;-72
2023/11/20 01:01:10;;;;;;;1999.90;999.90;;;11.70;86.70;;;;;;5041413;28;20930;-72
2023/11/20 01:03:37;;;;;;;1999.90;999.90;;;11.70;1.00;;;;;;5042304;28;20209;-71
2023/11/20 01:06:04;;;;;;;1999.90;999.90;;;11.70;1.00;;;;;;5042943;28;20171;-72
2023/11/20 01:08:30;;;;;;;1999.90;999.90;;;11.80;1.00;;;;;;5024763;28;20449;-72
2023/11/20 01:10:56;;;;;;;1999.90;999.90;;;11.80;1.00;;;;;;5042524;28;20441;-72
2023/11/20 01:13:22;;;;;;;1999.90;999.90;;;11.70;1.00;;;;;;5042285;28;20420;-72
2023/11/20 01:15:47;;;;;;;1999.90;999.90;;;11.70;1.00;;;;;;5041813;28;20204;-72
2023/11/20 01:18:14;;;;;;;1999.90;999.90;;;11.70;1.00;;;;;;5043562;28;20183;-72
2023/11/20 01:20:40;;;;;;;1999.90;999.90;;;11.70;1.00;;;;;;5042248;28;20284;-72
2023/11/20 01:23:06;;;;;;;1999.90;999.90;;;11.70;1.00;;;;;;5041039;28;20449;-72
2023/11/20 01:25:32;;;;;;;1999.90;999.90;;;11.70;1.00;;;;;;5039737;28;20472;-72
2023/11/20 01:27:59;;;;;;;1999.90;999.90;;;11.80;1.00;;;;;;5040525;28;20422;-72
2023/11/20 01:30:25;;;;;;;1999.90;999.90;;;11.80;1.00;;;;;;5041319;28;20235;-72
2023/11/20 01:32:51;;;;;;;1999.90;999.90;;;11.80;1.00;;;;;;5041277;28;20462;-71
2023/11/20 01:35:17;;;;;;;1999.90;999.90;;;11.70;1.00;;;;;;5041172;28;20414;-71
2023/11/20 01:37:42;;;;;;;1999.90;999.90;;;11.70;1.00;;;;;;5042662;28;20601;-70
2023/11/20 01:40:08;;;;;;;1999.90;999.90;;;11.20;10.10;;;;;;5045961;28;20200;-70
2023/11/20 01:42:34;;;;;;;1999.90;999.90;;;11.40;1.00;;;;;;5044152;28;20176;-71
2023/11/20 01:45:00;;;;;;;1999.90;999.90;;;11.20;99.90;;;;;;5024737;28;20411;-71
2023/11/20 01:47:26;;;;;;;1999.90;999.90;;;11.10;99.90;;;;;;5045516;28;20213;-71
2023/11/20 01:49:52;;;;;;;1999.90;999.90;;;11.20;99.90;;;;;;5030305;28;20241;-71
2023/11/20 01:52:18;;;;;;;1999.90;999.90;;;11.00;99.90;;;;;;5046809;28;20459;-71
2023/11/20 01:54:43;;;;;;;1999.90;999.90;;;11.00;99.90;;;;;;5028478;28;20417;-71
2023/11/20 01:57:10;;;;;;;1999.90;999.90;;;10.90;99.90;;;;;;5044562;28;20415;-71
2023/11/20 01:59:37;;;;;;;1999.90;999.90;;;11.10;99.90;;;;;;5044891;28;20203;-71
2023/11/20 02:02:02;;;;;;;1999.90;999.90;;;11.10;99.90;;;;;;5027232;28;20447;-72
2023/11/20 02:04:28;;;;;;;1999.90;999.90;;;11.10;99.90;;;;;;5043101;28;20496;-72
2023/11/20 02:06:54;;;;;;;1999.90;999.90;;;11.20;99.90;;;;;;5042437;28;20429;-72
2023/11/20 02:09:20;;;;;;;1999.90;999.90;;;11.20;99.90;;;;;;5042829;28;20458;-72
2023/11/20 02:11:46;;;;;;;1999.90;999.90;;;11.30;47.10;;;;;;5041794;28;20219;-72
2023/11/20 02:14:15;;;;;;;1999.90;999.90;;;11.30;10.80;;;;;;5041114;28;20222;-71
2023/11/20 02:16:41;;;;;;;1999.90;999.90;;;11.30;1.00;;;;;;5042380;28;20553;-71
2023/11/20 02:19:13;;;;;;;1999.90;999.90;;;11.30;1.00;;;;;;5040024;28;20438;-72
2023/11/20 02:21:39;;;;;;;1999.90;999.90;;;11.30;1.00;;;;;;5040039;28;20242;-71
2023/11/20 02:24:05;;;;;;;1999.90;999.90;;;11.40;1.00;;;;;;5022888;28;20443;-72
2023/11/20 02:26:34;;;;;;;1999.90;999.90;;;11.40;1.00;;;;;;5040975;28;20501;-71
2023/11/20 02:29:32;;;;;;;1999.90;999.90;;;11.40;1.00;;;;;;5041040;28;21049;-72
2023/11/20 02:31:58;;;;;;;1999.90;999.90;;;11.40;1.00;;;;;;4980802;28;21271;-72
2023/11/20 02:34:24;;;;;;;1999.90;999.90;;;11.40;1.00;;;;;;5040590;28;20414;-72
2023/11/20 02:36:50;;;;;;;1999.90;999.90;;;11.40;1.00;;;;;;5041221;28;20963;-72
2023/11/20 02:39:15;;;;;;;1999.90;999.90;;;11.40;1.00;;;;;;5036023;28;20416;-72
2023/11/20 02:41:43;;;;;;;1999.90;999.90;;;11.40;1.00;;;;;;5034033;28;20204;-72
2023/11/20 02:44:08;;;;;;;1999.90;999.90;;;11.40;99.90;;;;;;5034536;28;20178;-71
2023/11/20 02:46:35;;;;;;;1999.90;999.90;;;11.40;1.00;;;;;;5034385;28;20498;-71
2023/11/20 02:49:00;;;;;;;1999.90;999.90;;;11.50;99.90;;;;;;5034227;28;20447;-72
2023/11/20 02:51:27;;;;;;;1999.90;999.90;;;11.60;99.90;;;;;;5033953;28;20846;-72
2023/11/20 02:53:53;;;;;;;1999.90;999.90;;;11.60;99.90;;;;;;5034362;28;20538;-72
2023/11/20 02:56:19;;;;;;;1999.90;999.90;;;11.60;99.90;;;;;;5033814;28;20414;-72
2023/11/20 02:58:44;;;;;;;1999.90;999.90;;;11.60;99.90;;;;;;5033990;28;20170;-72
2023/11/20 03:01:11;;;;;;;1999.90;999.90;;;11.60;99.90;;;;;;5034153;28;20744;-72
2023/11/20 03:03:36;;;;;;;1999.90;999.90;;;11.60;99.90;;;;;;5034287;28;20267;-72
2023/11/20 03:06:02;;;;;;;1999.90;999.90;;;11.60;99.90;;;;;;5034079;28;20458;-72
2023/11/20 03:08:28;;;;;;;1999.90;999.90;;;11.60;99.90;;;;;;5033402;28;20164;-72
2023/11/20 03:10:53;;;;;;;1999.90;999.90;;;11.60;99.90;;;;;;5033581;28;20590;-72
2023/11/20 03:13:23;;;;;;;1999.90;999.90;;;11.60;42.50;;;;;;5034011;28;20165;-72
2023/11/20 03:15:49;;;;;;;1999.90;999.90;;;11.70;99.90;;;;;;5034119;28;20169;-72
2023/11/20 03:18:15;;;;;;;1999.90;999.90;;;11.70;1.00;;;;;;5034166;28;21002;-72
2023/11/20 03:20:40;;;;;;;1999.90;999.90;;;11.70;1.00;;;;;;5034074;28;20450;-71
2023/11/20 03:23:06;;;;;;;1999.90;999.90;;;11.70;1.00;;;;;;5033782;28;20695;-72
2023/11/20 03:25:32;;;;;;;1999.90;999.90;;;11.70;1.00;;;;;;5033308;28;20305;-72
2023/11/20 03:27:57;;;;;;;1999.90;999.90;;;11.70;99.90;;;;;;5033458;28;20190;-72
2023/11/20 03:30:23;;;;;;;1999.90;999.90;;;11.70;99.90;;;;;;5033187;28;20195;-72
2023/11/20 03:32:48;;;;;;;1999.90;999.90;;;11.70;99.90;;;;;;5033480;28;20815;-72
2023/11/20 03:35:14;;;;;;;1999.90;999.90;;;11.80;99.90;;;;;;5033460;28;20711;-72
2023/11/20 03:37:40;;;;;;;1999.90;999.90;;;11.70;40.60;;;;;;5033772;28;20511;-72
2023/11/20 03:40:07;;;;;;;1999.90;999.90;;;11.80;99.90;;;;;;5033480;28;20226;-71
2023/11/20 03:42:34;;;;;;;1999.90;999.90;;;11.80;99.90;;;;;;5034113;28;20547;-72
2023/11/20 03:44:59;;;;;;;1999.90;999.90;;;11.80;75.60;;;;;;5032813;28;20429;-72
2023/11/20 03:47:25;;;;;;;1999.90;999.90;;;11.80;1.00;;;;;;5032456;28;20411;-72
2023/11/20 03:49:51;;;;;;;1999.90;999.90;;;11.80;99.90;;;;;;5032374;28;20259;-72
2023/11/20 03:52:16;;;;;;;1999.90;999.90;;;11.80;1.00;;;;;;5032368;28;20203;-72
2023/11/20 03:54:42;;;;;;;1999.90;999.90;;;11.70;99.90;;;;;;5032289;28;20715;-72
2023/11/20 03:57:08;;;;;;;1999.90;999.90;;;11.60;99.90;;;;;;5032666;28;20213;-72
2023/11/20 03:59:33;;;;;;;1999.90;999.90;;;11.60;99.90;;;;;;5032248;28;20513;-72
2023/11/20 04:01:59;;;;;;;1999.90;999.90;;;11.60;99.90;;;;;;5032234;28;20197;-72
2023/11/20 04:04:24;;;;;;;1999.90;999.90;;;11.60;99.90;;;;;;5032119;28;20175;-72
2023/11/20 04:06:50;;;;;;;1999.90;999.90;;;11.60;99.90;;;;;;5032090;28;20176;-72
2023/11/20 04:09:16;;;;;;;1999.90;999.90;;;11.60;99.90;;;;;;5032340;28;20211;-72
2023/11/20 04:11:42;;;;;;;1999.90;999.90;;;11.60;99.90;;;;;;5032256;28;20731;-72
2023/11/20 04:14:07;;;;;;;1999.90;999.90;;;11.60;99.90;;;;;;5032129;28;20172;-72
2023/11/20 04:16:36;;;;;;;1999.90;999.90;;;11.60;99.90;;;;;;5032166;28;20219;-72
2023/11/20 04:19:03;;;;;;;1999.90;999.90;;;11.60;99.90;;;;;;5031716;28;20187;-72
2023/11/20 04:21:30;;;;;;;1999.90;999.90;;;11.60;1.00;;;;;;5031866;28;20427;-72
2023/11/20 04:23:56;;;;;;;1999.90;999.90;;;11.60;99.90;;;;;;5031835;28;20982;-72
2023/11/20 04:26:21;;;;;;;1999.90;999.90;;;11.60;99.90;;;;;;5031743;28;20423;-72
2023/11/20 04:28:47;;;;;;;1999.90;999.90;;;11.60;99.90;;;;;;5031986;28;20185;-71
2023/11/20 04:31:13;;;;;;;1999.90;999.90;;;11.60;99.90;;;;;;5031605;28;20196;-71
2023/11/20 04:33:42;;;;;;;1999.90;999.90;;;11.60;1.00;;;;;;5031859;28;20208;-71
2023/11/20 04:36:12;;;;;;;1999.90;999.90;;;11.60;99.90;;;;;;5031535;28;20414;-72
2023/11/20 04:38:38;;;;;;;1999.90;999.90;;;11.60;99.90;;;;;;5031710;28;20442;-72
2023/11/20 04:41:05;;;;;;;1999.90;999.90;;;11.60;99.90;;;;;;5031994;28;20485;-72
2023/11/20 04:43:31;;;;;;;1999.90;999.90;;;11.60;15.70;;;;;;5032267;28;20187;-71
2023/11/20 04:45:57;;;;;;;1999.90;999.90;;;11.60;1.00;;;;;;5032479;28;20411;-72
2023/11/20 04:48:23;;;;;;;1999.90;999.90;;;11.60;1.00;;;;;;5032523;28;20461;-72
2023/11/20 04:50:48;;;;;;;1999.90;999.90;;;11.50;1.00;;;;;;5032200;28;20686;-71
2023/11/20 04:53:14;;;;;;;1999.90;999.90;;;11.50;90.90;;;;;;5032317;28;20207;-72
2023/11/20 04:55:39;;;;;;;1999.90;999.90;;;11.50;1.00;;;;;;5031957;28;20186;-72
2023/11/20 04:58:05;;;;;;;1999.90;999.90;;;11.40;1.00;;;;;;5032188;28;20682;-72
2023/11/20 05:00:33;;;;;;;1999.90;999.90;;;11.40;99.90;;;;;;5032311;28;20193;-71
2023/11/20 05:02:58;;;;;;;1999.90;999.90;;;11.40;99.90;;;;;;5032721;28;20168;-72
2023/11/20 05:05:26;;;;;;;1999.90;999.90;;;11.40;99.90;;;;;;5032255;28;20418;-72
2023/11/20 05:07:52;;;;;;;1999.90;999.90;;;11.30;1.00;;;;;;5032237;28;20187;-72
2023/11/20 05:10:17;;;;;;;1999.90;999.90;;;11.30;1.00;;;;;;5032497;28;20926;-72
2023/11/20 05:12:43;;;;;;;1999.90;999.90;;;11.20;1.00;;;;;;5032466;28;20457;-71
2023/11/20 05:15:09;;;;;;;1999.90;999.90;;;11.10;8.80;;;;;;5032171;28;20414;-71
2023/11/20 05:17:35;;;;;;;1999.90;999.90;;;11.10;99.90;;;;;;5029510;28;20173;-71
2023/11/20 05:20:00;;;;;;;1999.90;999.90;;;11.10;99.90;;;;;;5012334;28;20180;-72
2023/11/20 05:22:26;;;;;;;1999.90;999.90;;;11.20;99.90;;;;;;5012834;28;20174;-71
2023/11/20 05:24:52;;;;;;;1999.90;999.90;;;11.20;29.00;;;;;;5012304;28;20178;-72
2023/11/20 05:27:19;;;;;;;1999.90;999.90;;;11.20;1.00;;;;;;5012314;28;20184;-72
2023/11/20 05:29:46;;;;;;;1999.90;999.90;;;11.20;1.00;;;;;;5012298;28;20422;-72
2023/11/20 05:32:12;;;;;;;1999.90;999.90;;;11.30;1.00;;;;;;5015325;28;20463;-71
2023/11/20 05:34:38;;;;;;;1999.90;999.90;;;11.20;99.90;;;;;;5015891;28;20783;-72
2023/11/20 05:37:04;;;;;;;1999.90;999.90;;;11.10;1.00;;;;;;5016026;28;20176;-72
2023/11/20 05:39:30;;;;;;;1999.90;999.90;;;11.10;1.00;;;;;;5015412;28;20463;-72
2023/11/20 05:41:56;;;;;;;1999.90;999.90;;;11.10;99.90;;;;;;5015238;28;20489;-72
2023/11/20 05:44:22;;;;;;;1999.90;999.90;;;11.10;57.70;;;;;;5015808;28;20379;-72
2023/11/20 05:46:47;;;;;;;1999.90;999.90;;;11.10;1.00;;;;;;5015773;28;20418;-72
2023/11/20 05:49:13;;;;;;;1999.90;999.90;;;11.20;99.90;;;;;;5015556;28;20180;-72
2023/11/20 05:51:38;;;;;;;1999.90;999.90;;;11.10;99.90;;;;;;5015243;28;20699;-72
2023/11/20 05:54:08;;;;;;;1999.90;999.90;;;11.10;1.00;;;;;;5015276;28;20191;-72
2023/11/20 05:56:34;;;;;;;1999.90;999.90;;;11.10;1.00;;;;;;5016153;28;20177;-72
2023/11/20 05:58:59;;;;;;;1999.90;999.90;;;11.10;1.00;;;;;;5014983;28;20439;-72
2023/11/20 06:01:34;;;;;;;1999.90;999.90;;;11.20;99.90;;;;;;5015295;28;20440;-72
2023/11/20 06:04:00;;;;;;;1999.90;999.90;;;11.10;99.90;;;;;;5015401;28;20157;-71
2023/11/20 06:06:25;;;;;;;1999.90;999.90;;;11.10;99.90;;;;;;5015011;28;20755;-72
2023/11/20 06:08:51;;;;;;;1999.90;999.90;;;11.10;1.00;;;;;;5014892;28;20260;-73
2023/11/20 06:11:23;;;;;;;1999.90;999.90;;;11.20;99.90;;;;;;5014857;28;20208;-72
2023/11/20 06:13:49;;;;;;;1999.90;999.90;;;11.20;99.90;;;;;;5015094;28;20166;-72
2023/11/20 06:16:16;;;;;;;1999.90;999.90;;;11.20;1.00;;;;;;5015083;28;20399;-72
2023/11/20 06:18:42;;;;;;;1999.90;999.90;;;11.20;1.00;;;;;;5014986;28;20419;-72
2023/11/20 06:21:08;;;;;;;1999.90;999.90;;;11.30;99.90;;;;;;5014814;28;20443;-72
2023/11/20 06:23:34;;;;;;;1999.90;999.90;;;11.30;87.80;;;;;;5014685;28;20410;-72
2023/11/20 06:26:00;;;;;;;1999.90;999.90;;;11.20;1.00;;;;;;5015004;28;20256;-71
2023/11/20 06:28:26;;;;;;;1999.90;999.90;;;11.30;2.50;;;;;;5015447;28;20919;-72
2023/11/20 06:30:51;;;;;;;1999.90;999.90;;;11.30;1.00;;;;;;5014809;28;20196;-71
2023/11/20 06:33:18;;;;;;;1999.90;999.90;;;11.20;99.90;;;;;;5014573;28;20214;-72
2023/11/20 06:35:44;;;;;;;1999.90;999.90;;;11.20;99.90;;;;;;5014658;28;20180;-73
2023/11/20 06:38:10;;;;;;;1999.90;999.90;;;11.20;99.90;;;;;;5014685;28;20414;-72
2023/11/20 06:40:36;;;;;;;1999.90;999.90;;;11.20;1.00;;;;;;5014751;28;20212;-72
2023/11/20 06:43:04;;;;;;;1999.90;999.90;;;11.20;1.00;;;;;;5013930;28;20269;-72
2023/11/20 06:45:30;;;;;;;1999.90;999.90;;;11.10;1.00;;;;;;5014522;28;20856;-72
2023/11/20 06:47:56;;;;;;;1999.90;999.90;;;11.10;99.90;;;;;;5014685;28;20929;-72
2023/11/20 06:50:22;;;;;;;1999.90;999.90;;;11.00;87.00;;;;;;5014209;28;20428;-72
2023/11/20 06:52:48;;;;;;;1999.90;999.90;;;11.00;1.00;;;;;;5014358;28;20463;-72
2023/11/20 06:55:14;;;;;;;1999.90;999.90;;;11.00;1.00;;;;;;5014468;28;20182;-72
2023/11/20 06:57:39;;;;;;;1999.90;999.90;;;11.00;1.00;;;;;;5014121;28;20432;-72
2023/11/20 07:00:06;;;;;;;1999.90;999.90;;;11.10;92.80;;;;;;5014330;28;20267;-71
2023/11/20 07:02:31;;;;;;;1999.90;999.90;;;11.00;1.00;;;;;;5015001;28;20184;-72
2023/11/20 07:04:58;;;;;;;1999.90;999.90;;;11.00;1.00;;;;;;5014303;28;20917;-71
2023/11/20 07:07:24;;;;;;;1999.90;999.90;;;11.00;99.90;;;;;;5014733;28;20242;-72
2023/11/20 07:09:50;;;;;;;1999.90;999.90;;;;;;;;;;5014173;28;20416;-71
2023/11/20 07:12:17;;;;;;;1999.90;999.90;;;11.00;99.90;;;;;;5014510;28;20460;-72
2023/11/20 07:14:43;;;;;;;1999.90;999.90;;;10.90;99.90;;;;;;5014763;28;20433;-71
2023/11/20 07:17:08;;;;;;;1999.90;999.90;;;11.00;26.30;;;;;;5014391;28;20479;-72
2023/11/20 07:19:35;;;;;;;1999.90;999.90;;;11.00;1.00;;;;;;5014511;28;20169;-72
2023/11/20 07:22:00;;;;;;;1999.90;999.90;;;11.00;99.90;;;;;;5014337;28;20277;-72
2023/11/20 07:24:27;;;;;;;1999.90;999.90;;;11.00;1.00;;;;;;5014267;28;20857;-72
2023/11/20 07:26:53;;;;;;;1999.90;999.90;;;11.00;99.90;;;;;;5014070;28;20185;-72
2023/11/20 07:29:19;;;;;;;1999.90;999.90;;;11.10;91.30;;;;;;5014069;28;20420;-72
2023/11/20 07:31:44;;;;;;;1999.90;999.90;;;11.00;1.00;;;;;;5013949;28;20551;-72
2023/11/20 07:34:10;;;;;;;1999.90;999.90;;;11.00;99.90;;;;;;5013662;28;20652;-72
2023/11/20 07:36:36;;;;;;;1999.90;999.90;;;11.00;99.90;;;;;;5014485;28;20181;-71
2023/11/20 07:39:03;;;;;;;1999.90;999.90;;;11.00;99.90;;;;;;5014163;28;20429;-72
2023/11/20 07:41:29;;;;;;;1999.90;999.90;;;11.10;1.00;;;;;;5013450;28;20225;-72
2023/11/20 07:43:54;;;;;;;1999.90;999.90;;;11.10;1.00;;;;;;5014409;28;20434;-72
2023/11/20 07:46:20;;;;;;;1999.90;999.90;;;11.10;1.00;;;;;;5014343;28;20260;-72
2023/11/20 07:48:45;;;;;;;1999.90;999.90;;;11.20;99.90;;;;;;5014506;28;20406;-71
2023/11/20 07:51:11;;;;;;;1999.90;999.90;;;11.20;1.00;;;;;;5014596;28;20205;-72
2023/11/20 07:53:37;;;;;;;1999.90;999.90;;;11.20;99.90;;;;;;5013758;28;20252;-72
2023/11/20 07:56:02;;;;;;;1999.90;999.90;;;11.20;1.00;;;;;;5013554;28;20547;-72
2023/11/20 07:58:28;;;;;;;1999.90;999.90;;;11.30;1.00;;;;;;5014103;28;20251;-71
2023/11/20 08:00:54;;;;;;;1999.90;999.90;;;11.30;1.00;;;;;;5014219;28;20430;-71
2023/11/20 08:03:19;;;;;;;1999.90;999.90;;;11.50;99.90;;;;;;5015207;28;20188;-72
2023/11/20 08:05:46;;;;;;;1999.90;999.90;;;11.50;99.90;;;;;;5014052;28;20235;-72
2023/11/20 08:08:12;;;;;;;1999.90;999.90;;;11.60;99.90;;;;;;5013361;28;20656;-72
2023/11/20 08:10:38;;;;;;;1999.90;999.90;;;11.60;99.90;;;;;;5013429;28;20520;-72
2023/11/20 08:13:04;;;;;;;1999.90;999.90;;;11.60;1.00;;;;;;5013678;28;20452;-71
2023/11/20 08:15:31;;;;;;;1999.90;999.90;;;11.50;99.90;;;;;;5013738;28;20440;-71
2023/11/20 08:17:56;;;;;;;1999.90;999.90;;;11.60;99.90;;;;;;5014002;28;20505;-72
2023/11/20 08:20:23;;;;;;;1999.90;999.90;;;11.60;99.90;;;;;;5013144;28;20858;-72
2023/11/20 08:22:48;;;;;;;1999.90;999.90;;;11.70;1.00;;;;;;5013494;28;20272;-71
2023/11/20 08:25:14;;;;;;;1999.90;999.90;;;11.70;99.90;;;;;;5014001;28;20419;-71
2023/11/20 08:27:41;;;;;;;1999.90;999.90;;;11.70;99.90;;;;;;5013739;28;20169;-72
2023/11/20 08:30:08;;;;;;;1999.90;999.90;;;11.80;99.90;;;;;;5013986;28;20176;-71
2023/11/20 08:32:34;;;;;;;1999.90;999.90;;;11.80;99.90;;;;;;5013958;28;20455;-72
2023/11/20 08:34:59;;;;;;;1999.90;999.90;;;11.80;99.90;;;;;;5014196;28;20408;-71
2023/11/20 08:37:25;;;;;;;1999.90;999.90;;;11.90;44.90;;;;;;5013621;28;20202;-72
2023/11/20 08:39:51;;;;;;;1999.90;999.90;;;11.80;99.90;;;;;;5014105;28;20167;-71
2023/11/20 08:42:16;;;;;;;1999.90;999.90;;;11.80;1.00;;;;;;5014202;28;20192;-72
2023/11/20 08:44:42;;;;;;;1999.90;999.90;;;11.80;99.90;;;;;;5014307;28;20176;-71
2023/11/20 08:47:09;;;;;;;1999.90;999.90;;;11.80;99.90;;;;;;5014540;28;20184;-72
2023/11/20 08:49:36;;;;;;;1999.90;999.90;;;11.80;99.90;;;;;;5014517;28;20566;-72
2023/11/20 08:52:02;;;;;;;1999.90;999.90;;;11.80;99.90;;;;;;5014045;28;20536;-72
2023/11/20 08:54:28;;;;;;;1999.90;999.90;;;11.80;1.00;;;;;;5014593;28;20416;-72
2023/11/20 08:56:53;;;;;;;1999.90;999.90;;;11.90;99.90;;;;;;5014442;28;20494;-71
2023/11/20 08:59:19;;;;;;;1999.90;999.90;;;11.80;1.00;;;;;;5013840;28;20228;-71
2023/11/20 09:01:47;;;;;;;1999.90;999.90;;;11.90;1.00;;;;;;5013915;28;20571;-72
2023/11/20 09:04:13;;;;;;;1999.90;999.90;;;11.90;1.00;;;;;;5013301;28;20227;-72
2023/11/20 09:06:38;;;;;;;1999.90;999.90;;;11.90;99.90;;;;;;5023525;28;20426;-71
2023/11/20 09:09:08;;;;;;;1999.90;999.90;;;11.90;99.90;;;;;;5014469;28;20740;-71
2023/11/20 09:11:34;;;;;;;1999.90;999.90;;;12.00;99.90;;;;;;5013401;28;20223;-70
2023/11/20 09:14:00;;;;;;;1999.90;999.90;;;12.00;99.90;;;;;;5010970;28;20412;-70
2023/11/20 09:16:25;;;;;;;1999.90;999.90;;;12.00;18.00;;;;;;5011118;28;20416;-70
2023/11/20 09:18:51;;;;;;;1999.90;999.90;;;12.00;1.00;;;;;;5012352;28;20404;-70
2023/11/20 09:21:17;;;;;;;1999.90;999.90;;;12.00;1.00;;;;;;5011210;28;20223;-69
2023/11/20 09:23:46;;;;;;;1999.90;999.90;;;12.00;99.90;;;;;;5011144;28;20188;-69
2023/11/20 09:26:12;;;;;;;1999.90;999.90;;;12.00;99.90;;;;;;5011543;28;20579;-70
2023/11/20 09:28:42;;;;;;;1999.90;999.90;;;12.00;1.00;;;;;;5010936;28;20414;-70
2023/11/20 09:31:14;;;;;;;1999.90;999.90;;;12.00;1.00;;;;;;5011094;28;20426;-69
2023/11/20 09:33:40;;;;;;;1999.90;999.90;;;12.00;1.00;;;;;;5011714;28;20416;-70
2023/11/20 09:36:06;;;;;;;1999.90;999.90;;;11.90;99.90;;;;;;5010856;28;20412;-70
2023/11/20 09:38:32;;;;;;;1999.90;999.90;;;12.00;35.90;;;;;;5014730;28;20185;-74
2023/11/20 09:40:58;;;;;;;1999.90;999.90;;;12.00;99.90;;;;;;4995979;28;20463;-70
2023/11/20 09:43:29;;;;;;;1999.90;999.90;;;12.00;99.90;;;;;;5016489;28;20664;-71
2023/11/20 09:45:59;;;;;;;1999.90;999.90;;;12.00;1.00;;;;;;5015139;28;20419;-71
2023/11/20 09:48:28;;;;;;;1999.90;999.90;;;12.10;1.00;;;;;;5015111;28;20472;-70
2023/11/20 09:50:54;;;;;;;1999.90;999.90;;;12.20;47.10;;;;;;5015590;28;20519;-71
2023/11/20 09:53:20;;;;;;;1999.90;999.90;;;12.20;99.90;;;;;;5014319;28;20488;-71
2023/11/20 09:55:45;;;;;;;1999.90;999.90;;;12.20;1.00;;;;;;5013994;28;21058;-71
2023/11/20 09:58:11;;;;;;;1999.90;999.90;;;12.20;99.90;;;;;;5014681;28;20176;-71
2023/11/20 10:00:37;;;;;;;1999.90;999.90;;;12.20;1.00;;;;;;5013513;28;20572;-71
2023/11/20 10:03:05;;;;;;;1999.90;999.90;;;12.20;99.90;;;;;;5014502;28;20177;-71
2023/11/20 10:05:41;;;;;;;1999.90;999.90;;;12.20;36.40;;;;;;5015916;28;20415;-71
2023/11/20 10:08:10;;;;;;;1999.90;999.90;;;12.10;99.90;;;;;;5014981;28;20913;-71
2023/11/20 10:10:36;;;;;;;1999.90;999.90;;;12.10;99.90;;;;;;5013728;28;20876;-71
2023/11/20 10:13:04;;;;;;;1999.90;999.90;;;12.10;1.00;;;;;;5011394;28;20990;-71
2023/11/20 10:15:33;;;;;;;1999.90;999.90;;;12.00;99.90;;;;;;5011551;28;20428;-71
2023/11/20 10:18:00;;;;;;;1999.90;999.90;;;11.90;99.90;;;;;;5011804;28;20423;-71
2023/11/20 10:20:26;;;;;;;1999.90;999.90;;;11.80;41.80;;;;;;5011438;28;20468;-70
2023/11/20 10:22:51;;;;;;;1999.90;999.90;;;11.60;1.00;;;;;;5010977;28;20448;-69
2023/11/20 10:25:18;;;;;;;1999.90;999.90;;;11.60;1.00;;;;;;5012002;28;20888;-70
2023/11/20 10:27:44;;;;;;;1999.90;999.90;;;11.50;99.90;;;;;;5012957;28;20652;-70
2023/11/20 10:30:10;;;;;;;1999.90;999.90;;;11.30;99.90;;;;;;5010703;28;20424;-69
2023/11/20 10:32:41;;;;;;;1999.90;999.90;;;11.40;99.90;;;;;;5010926;28;20723;-71
2023/11/20 10:35:17;;;;;;;1999.90;999.90;;;11.40;99.90;;;;;;5010331;28;20943;-71
2023/11/20 10:37:58;;;;;;;1999.90;999.90;;;11.40;1.00;;;;;;5010386;28;20413;-70
2023/11/20 10:43:23;;;;;;;1999.90;999.90;;;11.40;99.90;;;;;;5007671;28;20480;-70
2023/11/20 10:45:49;;;;;;;1999.90;999.90;;;12.10;99.90;;;;;;5009375;28;20907;-70
2023/11/20 10:48:15;;;;;;;1999.90;999.90;;;11.60;1.00;;;;;;5006548;28;20494;-71
2023/11/20 10:50:47;;;;;;;1999.90;999.90;;;11.60;1.00;;;;;;5003269;28;20467;-71
2023/11/20 10:53:17;;;;;;;1999.90;999.90;;;11.70;99.90;;;;;;4991012;28;20196;-70
2023/11/20 10:55:54;;;;;;;1999.90;999.90;;;11.90;99.90;;;;;;4989633;28;21139;-69
2023/11/20 10:58:20;;;;;;;1999.90;999.90;;;12.00;99.90;;;;;;4990190;28;20417;-71
2023/11/20 11:00:47;;;;;;;1999.90;999.90;;;12.00;99.90;;;;;;4990220;28;20479;-71
2023/11/20 11:03:15;;;;;;;1999.90;999.90;;;11.90;99.90;;;;;;4989776;28;20428;-70
2023/11/20 11:05:43;;;;;;;1999.90;999.90;;;11.80;99.90;;;;;;4992999;28;20421;-70
2023/11/20 11:08:11;;;;;;;1999.90;999.90;;;11.40;99.90;;;;;;4993665;28;20419;-71
2023/11/20 11:10:42;;;;;;;1999.90;999.90;;;11.00;99.90;;;;;;4990640;28;20466;-72
2023/11/20 11:13:08;;;;;;;1999.90;999.90;;;10.90;1.00;;;;;;4989875;28;20986;-70
2023/11/20 11:15:35;;;;;;;1999.90;999.90;;;10.70;1.00;;;;;;4989786;28;20422;-70
2023/11/20 11:18:12;;;;;;;1999.90;999.90;;;10.60;1.00;;;;;;4989803;28;20420;-70
2023/11/20 11:21:01;;;;;;;1999.90;999.90;;;10.60;1.00;;;;;;4989792;28;20515;-71
2023/11/20 11:23:49;;;;;;;1999.90;999.90;;;10.40;99.90;;;;;;4989073;28;20430;-70
2023/11/20 11:26:52;;;;;;;1999.90;999.90;;;10.60;81.60;;;;;;4989170;28;20414;-72
2023/11/20 11:29:23;;;;;;;1999.90;999.90;;;10.60;99.90;;;;;;4983389;28;20515;-72
2023/11/20 11:32:16;;;;;;;1999.90;999.90;;;10.50;99.90;;;;;;4988994;28;20460;-72
2023/11/20 11:34:53;;;;;;;1999.90;999.90;;;10.50;99.90;;;;;;4989200;28;20474;-72
2023/11/20 11:37:40;;;;;;;1999.90;999.90;;;10.70;99.90;;;;;;4989133;28;20474;-71
2023/11/20 11:40:25;;;;;;;1999.90;999.90;;;12.10;99.90;;;;;;4985751;28;20424;-68
2023/11/20 11:43:02;;;;;;;1999.90;999.90;;;12.20;99.90;;;;;;4989519;28;20511;-71
2023/11/20 11:45:30;;;;;;;1999.90;999.90;;;12.70;1.00;;;;;;4988604;28;20477;-69
2023/11/20 11:47:56;;;;;;;1999.90;999.90;;;13.40;99.90;;;;;;4989371;28;20707;-72
2023/11/20 11:50:22;;;;;;;1999.90;999.90;;;14.00;99.90;;;;;;4989048;28;20325;-73
2023/11/20 11:52:48;;;;;;;1999.90;999.90;;;14.20;99.90;;;;;;4990013;28;20894;-72
2023/11/20 11:55:16;;;;;;;1999.90;999.90;;;14.30;99.90;;;;;;4989690;28;20177;-73
2023/11/20 11:57:57;;;;;;;1999.90;999.90;;;14.00;99.90;;;;;;4994627;28;20435;-73
2023/11/20 12:00:26;;;;;;;1999.90;999.90;;;13.60;99.90;;;;;;5006226;28;20483;-73
2023/11/20 12:02:54;;;;;;;1999.90;999.90;;;12.80;99.90;;;;;;5010207;28;20425;-73
2023/11/20 12:05:21;;;;;;;1999.90;999.90;;;12.80;99.90;;;;;;5002669;28;20438;-74